• Join FlightAware (Why Join?)
  • Login
  • US Flag 
12:44PM EST


 

Airport Tracker/Info


-or-


 

Live Flight TrackerFlight Track Log ✈ JBU33 ✈ 08-Aug-2013 ✈ KBTV - KJFK

Flight Track Log - Related Links

Times and Time Zones

All times are in EDT time to prevent confusion due to time zone crossing. See the JBU33 flight status page for this flight to view local times or setup timezone preferences in your user account.

Time Position Orientation Groundspeed Altitude Reporting Facility
EDT Latitude Longitude Course Direction KTS MPH feet Rate Location/Type
02:51PM 44.1444 -73.2709 195° South  Level FlightAware Approximate
02:51PM 44.2808 -73.0083 196° South 315 362 9,400  Level Boston Center
02:52PM 44.0634 -73.3011 194° South  Level FlightAware Approximate
02:52PM 44.1953 -73.0075 180° South 309 356 10,000  Level Boston Center
02:53PM 43.9818 -73.3283 194° South  Level FlightAware Approximate
02:53PM 44.1014 -73.0211 186° South 334 384 11,800  Level Boston Center
02:54PM 43.9004 -73.3565 196° South  Level FlightAware Approximate
02:54PM 44.0097 -73.0464 191° South 340 391 14,300  Level Boston Center
02:55PM 43.8198 -73.3889 196° South  Level FlightAware Approximate
02:55PM 43.9094 -73.0683 189° South 357 411 16,800  Level Boston Center
02:56PM 43.7392 -73.4212 196° South  Level FlightAware Approximate
02:56PM 43.8114 -73.0989 193° South 362 417 18,900  Level Boston Center
02:57PM 43.7069 -73.1350 194° South 374 430 20,900 2,040 Climbing Boston Center
02:58PM 43.5900 -73.1797 195° South 390 449 23,100 1,860 Climbing Boston Center
02:59PM 43.4794 -73.2156 193° South 400 460 24,800 1,440 Climbing Boston Center
03:00PM 43.3833 -73.2514 195° South 400 460 26,000 1,260 Climbing Boston Center
03:01PM 43.2622 -73.2897 193° South 418 481 27,300 960 Climbing Boston Center
03:02PM 43.1431 -73.3308 194° South 436 502 28,000 300 Climbing Boston Center
03:03PM 43.0239 -73.3717 194° South 441 507 28,000 -60 Level Boston Center
03:04PM 42.9006 -73.4122 194° South 450 518 27,900 -300 Descending Boston Center
03:05PM 42.7708 -73.4611 195° South 445 512 27,500 -480 Descending Boston Center
03:06PM 42.6539 -73.5014 194° South 445 512 27,000 -660 Descending Boston Center
03:07PM 42.5347 -73.5389 193° South 445 512 26,200 -780 Descending Boston Center
03:08PM 42.4197 -73.5792 194° South 440 506 25,500 -720 Descending Boston Center
03:09PM 42.3172 -73.6081 192° South 434 499 24,800 -780 Descending Boston Center
03:10PM 42.2147 -73.6428 194° South 412 474 24,000 -420 Descending Boston Center
03:11PM 42.1164 -73.6717 192° South 380 437 24,000  Level Boston Center
03:12PM 42.0036 -73.7139 196° South 375 432 24,000  Level Boston Center
03:13PM 41.9125 -73.6564 155° Southeast 347 399 24,000  Level Boston Center
03:14PM 41.8364 -73.5464 133° Southeast 363 418 24,000 -360 Level Boston Center
03:15PM 41.7431 -73.5003 160° South 356 410 23,300 -780 Descending Boston Center
03:16PM 41.6322 -73.6633 228° Southwest 321 369 21,900 -900 Descending New York Center
03:17PM 41.5650 -73.7739 231° Southwest 335 386 21,000 -480 Descending New York Center
03:18PM 41.5147 -73.8575 231° Southwest 326 375 21,000  Level New York Center
03:19PM 41.4669 -73.9356 231° Southwest 300 345 21,000  Level New York Center
03:20PM 41.4169 -74.0161 230° Southwest 286 329 21,000  Level New York Center
03:21PM 41.3650 -74.0828 224° Southwest 279 321 21,000  Level New York Center
03:22PM 41.2928 -74.1317 207° Southwest 279 321 21,000  Level New York Center
03:23PM 41.2097 -74.1303 179° South 285 328 21,000  Level New York Center
03:24PM 41.1358 -74.1569 195° South 290 334 21,000  Level New York Center
03:25PM 41.0942 -74.2372 235° Southwest 263 303 21,000  Level New York Center
03:26PM 41.0500 -74.3203 235° Southwest 269 310 21,000  Level New York Center
03:27PM 41.0139 -74.4092 242° Southwest 274 315 21,000  Level New York Center
03:28PM 41.0597 -74.4750 313° West 217 250 21,000  Level New York Center
03:29PM 41.1225 -74.3958 44° Northeast 152 175 21,000  Level New York Center
03:30PM 41.1611 -74.2958 63° Northeast 219 252 21,000  Level New York Center
03:31PM 41.0956 -74.2539 154° Southeast 147 169 21,000  Level New York Center
03:32PM 41.0475 -74.3339 231° Southwest 141 162 21,000  Level New York Center
03:33PM 41.0136 -74.4175 242° Southwest 217 250 21,000  Level New York Center
03:34PM 41.0722 -74.4728 325° Northwest 169 194 21,000  Level New York Center
03:35PM 41.1314 -74.3853 48° Northeast 171 197 21,000  Level New York Center
03:36PM 41.1575 -74.2792 72° East 224 258 21,000  Level New York Center
03:37PM 41.0850 -74.2589 168° South 141 162 21,000  Level New York Center
03:38PM 41.0389 -74.3417 234° Southwest 171 197 21,000  Level New York Center
03:39PM 41.0153 -74.4314 251° West 220 253 21,000  Level New York Center
03:40PM 41.0828 -74.4681 338° Northwest 162 186 21,000  Level New York Center
03:41PM 41.1358 -74.3744 53° Northeast 162 186 21,000  Level New York Center
03:42PM 41.1517 -74.2622 79° East 237 273 21,000  Level New York Center
03:43PM 41.0764 -74.2694 184° South 138 159 21,000  Level New York Center
03:44PM 41.0342 -74.3581 238° Southwest 185 213 21,000  Level New York Center
03:45PM 41.0231 -74.4508 261° West 217 250 21,000  Level New York Center
03:46PM 41.0956 -74.4603 354° North 157 181 21,000  Level New York Center
03:47PM 41.1464 -74.3639 55° Northeast 177 204 21,000  Level New York Center
03:48PM 41.1458 -74.2511 90° East 220 253 21,000  Level New York Center
03:49PM 41.0719 -74.2775 195° South 131 151 21,000  Level New York Center
03:50PM 41.0278 -74.3658 236° Southwest 185 213 21,000 -60 Level New York Center
03:51PM 40.9658 -74.4147 211° Southwest 244 281 20,900 -600 Descending New York Center
03:52PM 40.8667 -74.3333 148° Southeast 367 422 19,800 -960 Descending New York TRACON
03:53PM 40.8167 -74.2333 123° Southeast 360 414 19,000 -900 Descending New York TRACON
03:54PM 40.7667 -74.1333 123° Southeast 346 398 18,000 -1,260 Descending New York TRACON
03:55PM 40.7167 -74.0167 119° Southeast 343 395 16,500 -1,740 Descending New York TRACON
03:56PM 40.6833 -73.9000 111° Southeast 338 389 14,600 -1,560 Descending New York TRACON
03:57PM 40.6667 -73.7833 101° East 311 358 13,400 -1,680 Descending New York TRACON
03:58PM 40.6333 -73.6667 111° Southeast 288 331 11,300 -2,100 Descending New York TRACON
03:59PM 40.6167 -73.5667 102° East 295 339 9,200 -2,040 Descending New York TRACON
04:00PM 40.6000 -73.4500 101° East 291 335 7,300 -1,920 Descending New York TRACON
04:01PM 40.5833 -73.3500 102° East 291 335 5,400 -1,680 Descending New York TRACON
04:02PM 40.6500 -73.3000 30° Northeast 301 346 4,000 -720 Descending New York TRACON
04:03PM 40.7167 -73.3333 339° North 275 316 4,000 -480 Level New York TRACON
04:04PM 40.7833 -73.3833 330° Northwest 275 316 3,100 -540 Descending New York TRACON
04:05PM 40.8167 -73.4667 298° West 241 277 3,000 -600 Descending New York TRACON
04:06PM 40.8500 -73.5333 303° West 226 260 2,000 -540 Descending New York TRACON
04:07PM 40.8167 -73.6000 237° Southwest 209 241 2,000  Level New York TRACON
04:08PM 40.7833 -73.6500 229° Southwest 167 192 2,000  Level New York TRACON
04:09PM 40.7500 -73.6833 217° Southwest 165 190 2,000 -300 Level New York TRACON
04:10PM 40.7000 -73.7000 194° South 144 166 1,400 -600 Descending New York TRACON
04:11PM 40.6833 -73.7333 237° Southwest 116 133 800 -660 Descending New York TRACON